Terminal Aerodrome Forecast
Issued by NWS

Home | Current Version | Previous Version | Text Only | Print | Product List | Glossary On
Versions: 1 2 3 4 5 6 7 8 9 10 11 12 13 14 15 16 17 18 19 20 21 22 23 24
000
FTUS45 KBOI 271723
TAFTWF
TAF
KTWF 271723Z 2718/2818 VRB05KT P6SM SKC
     FM272000 31008KT P6SM SKC
     FM280200 18007KT P6SM SKC
     FM281200 23015G25KT P6SM BKN080
     FM281700 24025G35KT P6SM SCT200=

USA.gov is the U.S. government's official web portal to all federal, state and local government web resources and services.